This is the latest recevied weather packets stored in our database for station/object JH5EWP-13. If no packets are shown the sender has not sent any weather packets the latest 1 day(s).
| Time | Temp. | Humidity | Pressure | Rain* | Wind** | Luminosity | Snow |
|---|---|---|---|---|---|---|---|
| 1777984724 | 17.22° C | 42% | 1010.2 hPa | 0 mm | 0.89 m/s, 107° | - | - |
| 1777983824 | 17.22° C | 41% | 1009.9 hPa | 0 mm | 1.79 m/s, 108° | - | - |
| 1777982924 | 17.22° C | 40% | 1009.9 hPa | 0 mm | 1.34 m/s, 111° | - | - |
| 1777982026 | 17.22° C | 50% | 1009.9 hPa | 0 mm | 0.89 m/s, 95° | - | - |
| 1777981126 | 17.22° C | 50% | 1009.7 hPa | 0 mm | 1.34 m/s, 102° | - | - |
| 1777980226 | 17.78° C | 45% | 1009.4 hPa | 0 mm | 1.79 m/s, 94° | - | - |
| 1777979325 | 17.78° C | 41% | 1009.2 hPa | 0 mm | 1.34 m/s, 86° | - | - |
| 1777978425 | 17.78° C | 33% | 1009.2 hPa | 0 mm | 0 m/s | - | - |
| 1777977525 | 18.33° C | 32% | 1008.9 hPa | 0 mm | 0 m/s | - | - |
| 1777976625 | 18.33° C | 30% | 1008.8 hPa | 0 mm | 0 m/s | - | - |
| 1777975725 | 18.89° C | 30% | 1008.8 hPa | 0 mm | 0.45 m/s, 270° | - | - |
| 1777974825 | 19.44° C | 28% | 1009 hPa | 0 mm | 0.45 m/s, 270° | - | - |
| 1777973925 | 20° C | 25% | 1008.8 hPa | 0 mm | 0 m/s | - | - |
| 1777973025 | 21.67° C | 23% | 1008.7 hPa | 0 mm | 0.45 m/s, 270° | - | - |
| 1777972124 | 21.67° C | 23% | 1008.7 hPa | 0 mm | 0.45 m/s, 261° | - | - |
| 1777971224 | 22.22° C | 22% | 1008.8 hPa | 0 mm | 0.89 m/s, 278° | - | - |
| 1777970324 | 22.22° C | 22% | 1008.8 hPa | 0 mm | 0.89 m/s, 275° | - | - |
| 1777969424 | 22.22° C | 22% | 1008.7 hPa | 0 mm | 1.34 m/s, 270° | - | - |
| 1777968526 | 22.22° C | 22% | 1009 hPa | 0 mm | 1.34 m/s, 280° | - | - |
| 1777967626 | 22.78° C | 21% | 1008.7 hPa | 0 mm | 0.89 m/s, 295° | - | - |
| 1777966726 | 23.33° C | 21% | 1008.8 hPa | 0 mm | 0.89 m/s, 281° | - | - |
| 1777965826 | 22.22° C | 22% | 1008.6 hPa | 0 mm | 1.34 m/s, 274° | - | - |
| 1777964925 | 22.22° C | 26% | 1008.8 hPa | 0 mm | 1.34 m/s, 271° | - | - |
| 1777964024 | 21.67° C | 28% | 1008.7 hPa | 0 mm | 1.79 m/s, 278° | - | - |
| 1777963124 | 21.67° C | 30% | 1008.7 hPa | 0 mm | 1.34 m/s, 277° | - | - |
* Rain latest hour (hover to see other rain measurements)
** Current wind speed in m/s (hover to see current wind gust speed)